createdAt,value
2023-05-10T00:00:59.390Z,59.36
2023-05-10T00:06:02.583Z,59.26
2023-05-10T00:11:06.036Z,59.83
2023-05-10T00:16:09.105Z,60.14
2023-05-10T00:21:12.091Z,60.31
2023-05-10T00:26:15.206Z,60.99
2023-05-10T00:31:18.106Z,61.95
2023-05-10T00:36:22.008Z,62.26
2023-05-10T00:41:24.980Z,63.24
2023-05-10T00:46:29.599Z,63.75
2023-05-10T00:51:33.061Z,64.19
2023-05-10T00:56:36.384Z,64.75
2023-05-10T01:01:40.107Z,65.07
2023-05-10T01:06:44.315Z,65.81
2023-05-10T01:11:48.576Z,66.46
2023-05-10T01:16:52.337Z,67.04
2023-05-10T01:22:32.697Z,67.61
2023-05-10T01:27:57.587Z,68.50
2023-05-10T01:33:12.792Z,68.70
2023-05-10T01:38:48.651Z,69.35
2023-05-10T01:44:21.645Z,70.00
2023-05-10T01:49:31.870Z,70.10
2023-05-10T01:54:36.809Z,70.39
2023-05-10T01:59:41.994Z,70.35
2023-05-10T02:04:47.395Z,70.56
2023-05-10T02:09:51.975Z,71.39
2023-05-10T02:14:55.549Z,71.71
2023-05-10T02:20:01.001Z,72.37
2023-05-10T02:25:05.544Z,72.24
2023-05-10T02:30:10.511Z,72.78
2023-05-10T02:35:13.915Z,73.25
2023-05-10T02:40:18.935Z,73.63
2023-05-10T02:45:29.205Z,73.90
2023-05-10T02:50:34.973Z,73.67
2023-05-10T02:55:42.766Z,74.03
2023-05-10T03:00:47.252Z,73.89
2023-05-10T03:05:50.176Z,73.29
2023-05-10T03:11:34.402Z,73.10
2023-05-10T03:16:58.854Z,72.86
2023-05-10T03:22:09.789Z,72.87
2023-05-10T03:27:15.413Z,73.38
2023-05-10T03:32:18.582Z,73.15
2023-05-10T03:37:21.595Z,73.49
2023-05-10T03:42:24.715Z,74.56
2023-05-10T03:47:27.702Z,74.49
2023-05-10T03:52:31.227Z,75.04
2023-05-10T03:57:34.933Z,74.94
2023-05-10T04:02:38.611Z,74.91
2023-05-10T04:07:41.673Z,75.34
2023-05-10T04:12:44.858Z,76.11
2023-05-10T04:17:48.312Z,76.34
2023-05-10T04:22:51.374Z,76.35
2023-05-10T04:27:54.423Z,76.24
2023-05-10T04:32:57.448Z,76.87
2023-05-10T04:38:00.499Z,76.98
2023-05-10T04:43:03.613Z,77.37
2023-05-10T04:48:06.918Z,77.36
2023-05-10T04:53:09.936Z,77.66
2023-05-10T04:58:12.947Z,78.09
2023-05-10T05:03:16.065Z,78.02
2023-05-10T05:08:19.662Z,78.24
2023-05-10T05:13:22.930Z,78.08
2023-05-10T05:18:26.123Z,78.18
2023-05-10T05:23:29.195Z,77.32
2023-05-10T05:28:35.486Z,77.76
2023-05-10T05:33:38.576Z,74.79
2023-05-10T05:38:41.642Z,73.54
2023-05-10T05:43:44.674Z,73.67
2023-05-10T05:48:47.598Z,73.65
2023-05-10T05:53:51.168Z,73.00
2023-05-10T05:58:54.293Z,73.08
2023-05-10T06:03:57.343Z,73.01
2023-05-10T06:09:00.315Z,73.14
2023-05-10T06:14:08.810Z,71.55
2023-05-10T06:19:11.790Z,70.85
2023-05-10T06:24:14.757Z,68.96
2023-05-10T06:29:17.882Z,65.55
2023-05-10T06:34:21.079Z,64.72
2023-05-10T06:39:24.049Z,64.90
2023-05-10T06:44:27.031Z,64.63
2023-05-10T06:49:29.949Z,63.47
2023-05-10T06:54:32.985Z,62.53
2023-05-10T06:59:37.696Z,61.72
2023-05-10T07:04:41.025Z,62.36
2023-05-10T07:09:44.460Z,61.51
2023-05-10T07:14:47.842Z,61.85
2023-05-10T07:19:51.078Z,61.77
2023-05-10T07:24:54.325Z,61.20
2023-05-10T07:29:57.641Z,59.73
2023-05-10T07:35:00.758Z,58.83
2023-05-10T07:40:03.998Z,58.87
2023-05-10T07:45:07.866Z,58.62
2023-05-10T07:50:11.107Z,59.42
2023-05-10T07:55:15.843Z,59.02
2023-05-10T08:00:21.163Z,57.32
2023-05-10T08:05:24.193Z,58.12
2023-05-10T08:10:27.351Z,57.61
2023-05-10T08:15:30.501Z,57.63
2023-05-10T08:20:33.577Z,57.77
2023-05-10T08:25:37.167Z,57.62
2023-05-10T08:30:40.750Z,56.69
2023-05-10T08:35:43.789Z,57.78
2023-05-10T08:40:47.812Z,58.53
2023-05-10T08:45:52.729Z,58.52
2023-05-10T08:50:57.432Z,58.39
2023-05-10T08:56:02.269Z,57.54
2023-05-10T09:01:07.051Z,57.07
2023-05-10T09:06:10.129Z,55.84
2023-05-10T09:11:14.244Z,55.21
2023-05-10T09:16:21.607Z,55.03
2023-05-10T09:21:26.107Z,53.62
2023-05-10T09:26:29.108Z,52.11
2023-05-10T09:31:55.555Z,52.86
2023-05-10T09:37:05.378Z,51.64
2023-05-10T09:42:10.736Z,50.75
2023-05-10T09:47:20.109Z,51.08
2023-05-10T09:52:23.390Z,51.39
2023-05-10T09:57:27.405Z,51.51
2023-05-10T10:02:30.569Z,49.89
2023-05-10T10:07:33.888Z,49.28
2023-05-10T10:12:38.779Z,49.18
2023-05-10T10:17:44.390Z,48.44
2023-05-10T10:22:48.855Z,47.11
2023-05-10T10:27:55.029Z,47.60
2023-05-10T10:33:48.280Z,46.42
2023-05-10T10:39:02.296Z,46.79
2023-05-10T10:44:27.055Z,46.82
2023-05-10T10:49:44.682Z,46.22
2023-05-10T10:55:11.876Z,46.11
2023-05-10T11:00:46.646Z,46.36
2023-05-10T11:05:52.110Z,44.31
2023-05-10T11:11:02.350Z,43.00
2023-05-10T11:16:28.174Z,42.92
2023-05-10T11:21:35.599Z,42.61
2023-05-10T11:26:38.749Z,45.14
2023-05-10T11:31:47.694Z,45.20
2023-05-10T11:36:57.608Z,44.83
2023-05-10T11:42:01.228Z,44.88
2023-05-10T11:47:04.583Z,45.07
2023-05-10T11:52:09.328Z,44.95
2023-05-10T11:57:12.562Z,43.95
2023-05-10T12:02:16.231Z,44.43
2023-05-10T12:07:19.240Z,43.60
2023-05-10T12:12:22.270Z,43.75
2023-05-10T12:17:29.953Z,43.39
2023-05-10T12:22:36.298Z,43.36
2023-05-10T12:27:39.439Z,43.86
2023-05-10T12:32:43.360Z,43.66
2023-05-10T12:37:46.456Z,43.63
2023-05-10T12:42:49.876Z,44.28
2023-05-10T12:47:52.976Z,43.89
2023-05-10T12:52:56.040Z,44.03
2023-05-10T12:57:58.957Z,44.12
2023-05-10T13:03:02.042Z,44.32
2023-05-10T13:08:05.489Z,42.62
2023-05-10T13:13:09.494Z,42.59
2023-05-10T13:18:12.503Z,42.74
2023-05-10T13:23:15.288Z,42.78
2023-05-10T13:28:18.203Z,43.15
2023-05-10T13:33:21.153Z,42.32
2023-05-10T13:38:24.177Z,42.48
2023-05-10T13:43:27.008Z,40.53
2023-05-10T13:48:30.117Z,39.64
2023-05-10T13:53:33.220Z,40.16
2023-05-10T13:58:37.489Z,39.67
2023-05-10T14:03:41.148Z,39.20
2023-05-10T14:08:44.336Z,39.91
2023-05-10T14:13:47.581Z,39.11
2023-05-10T14:18:50.586Z,40.62
2023-05-10T14:23:53.588Z,39.29
2023-05-10T14:28:56.600Z,39.27
2023-05-10T14:34:00.246Z,39.59
2023-05-10T14:39:03.880Z,40.36
2023-05-10T14:44:06.965Z,40.97
2023-05-10T14:49:09.978Z,41.29
2023-05-10T14:54:12.936Z,41.08
2023-05-10T14:59:15.952Z,41.16
2023-05-10T15:04:19.251Z,40.58
2023-05-10T15:09:22.657Z,39.90
2023-05-10T15:14:25.692Z,39.45
2023-05-10T15:19:30.212Z,39.83
2023-05-10T15:24:33.270Z,39.31
2023-05-10T15:29:36.911Z,38.51
2023-05-10T15:34:39.838Z,38.20
2023-05-10T15:39:42.740Z,37.79
2023-05-10T15:44:46.094Z,37.69
2023-05-10T15:49:49.019Z,37.51
2023-05-10T15:54:52.333Z,38.45
2023-05-10T15:59:56.378Z,39.54
2023-05-10T16:04:59.872Z,40.38
2023-05-10T16:10:04.253Z,40.90
2023-05-10T16:15:08.798Z,41.63
2023-05-10T16:20:12.132Z,42.25
2023-05-10T16:25:15.517Z,42.96
2023-05-10T16:30:18.940Z,43.43
2023-05-10T16:35:23.546Z,43.20
2023-05-10T16:40:26.607Z,43.70
2023-05-10T16:45:32.707Z,43.47
2023-05-10T16:50:35.715Z,44.42
2023-05-10T16:55:38.462Z,43.68
2023-05-10T17:00:41.469Z,43.47
2023-05-10T17:05:44.649Z,43.81
2023-05-10T17:10:47.626Z,43.59
2023-05-10T17:15:50.604Z,44.26
2023-05-10T17:20:53.649Z,44.14
2023-05-10T17:25:56.486Z,45.16
2023-05-10T17:31:00.179Z,44.84
2023-05-10T17:36:05.995Z,45.10
2023-05-10T17:41:08.899Z,45.16
2023-05-10T17:46:12.912Z,44.95
2023-05-10T17:51:16.060Z,45.13
2023-05-10T17:56:19.140Z,45.03
2023-05-10T18:01:22.363Z,45.12
2023-05-10T18:06:26.390Z,45.04
2023-05-10T18:11:29.431Z,45.22
2023-05-10T18:16:32.506Z,45.54
2023-05-10T18:21:35.879Z,45.72
2023-05-10T18:26:38.800Z,46.44
2023-05-10T18:31:41.944Z,46.94
2023-05-10T18:36:45.214Z,47.29
2023-05-10T18:41:48.284Z,47.89
2023-05-10T18:46:54.074Z,48.34
2023-05-10T18:51:57.216Z,48.92
2023-05-10T18:57:00.158Z,49.88
2023-05-10T19:02:03.337Z,50.68
2023-05-10T19:07:06.328Z,51.74
2023-05-10T19:12:09.268Z,52.22
2023-05-10T19:17:13.377Z,53.12
2023-05-10T19:22:17.731Z,53.18
2023-05-10T19:27:23.052Z,53.70
2023-05-10T19:32:26.068Z,54.35
2023-05-10T19:37:29.110Z,54.81
2023-05-10T19:42:32.137Z,55.23
2023-05-10T19:47:36.425Z,55.65
2023-05-10T19:52:39.435Z,56.22
2023-05-10T19:57:42.265Z,56.85
2023-05-10T20:02:45.288Z,56.96
2023-05-10T20:07:48.340Z,57.54
2023-05-10T20:12:52.909Z,58.09
2023-05-10T20:17:56.376Z,58.27
2023-05-10T20:22:59.420Z,58.61
2023-05-10T20:28:02.398Z,58.91
2023-05-10T20:33:05.650Z,58.96
2023-05-10T20:38:08.751Z,59.24
2023-05-10T20:43:11.964Z,59.25
2023-05-10T20:48:15.146Z,59.21
2023-05-10T20:53:19.071Z,58.93
2023-05-10T20:58:22.154Z,58.96
2023-05-10T21:03:25.038Z,58.87
2023-05-10T21:08:28.018Z,58.85
2023-05-10T21:13:31.860Z,58.68
2023-05-10T21:18:34.806Z,59.01
2023-05-10T21:23:38.245Z,58.91
2023-05-10T21:28:42.405Z,58.88
2023-05-10T21:33:46.254Z,59.12
2023-05-10T21:38:50.576Z,59.22
2023-05-10T21:43:53.663Z,59.25
2023-05-10T21:48:56.825Z,59.50
2023-05-10T21:54:01.040Z,59.20
2023-05-10T21:59:05.086Z,59.67
2023-05-10T22:04:08.100Z,59.88
2023-05-10T22:09:11.084Z,59.93
2023-05-10T22:14:14.035Z,59.77
2023-05-10T22:19:17.202Z,59.53
2023-05-10T22:24:20.144Z,59.73
2023-05-10T22:29:23.967Z,59.57
2023-05-10T22:34:26.916Z,59.59
2023-05-10T22:39:29.950Z,59.58
2023-05-10T22:44:32.825Z,59.48
2023-05-10T22:49:36.217Z,59.02
2023-05-10T22:54:39.194Z,59.02
2023-05-10T22:59:42.492Z,59.18
2023-05-10T23:04:45.399Z,59.28
2023-05-10T23:09:48.927Z,59.54
2023-05-10T23:14:51.954Z,59.45
2023-05-10T23:19:54.843Z,59.42
2023-05-10T23:24:58.873Z,59.42
2023-05-10T23:30:01.789Z,59.57
2023-05-10T23:35:06.667Z,59.92
2023-05-10T23:40:11.786Z,60.81
2023-05-10T23:45:14.784Z,61.38
2023-05-10T23:50:18.210Z,61.84
2023-05-10T23:55:21.509Z,61.80
